sensor_id;sensor_type;location;lat;lon;timestamp;P1;durP1;ratioP1;P2;durP2;ratioP2
70433;SDS011;57876;47.792;12.960;2023-02-23T00:00:13;5.50;;;2.30;;
70433;SDS011;57876;47.792;12.960;2023-02-23T00:02:44;5.82;;;2.13;;
70433;SDS011;57876;47.792;12.960;2023-02-23T00:05:08;6.07;;;2.40;;
70433;SDS011;57876;47.792;12.960;2023-02-23T00:07:32;5.80;;;2.20;;
70433;SDS011;57876;47.792;12.960;2023-02-23T00:09:57;5.80;;;2.10;;
70433;SDS011;57876;47.792;12.960;2023-02-23T00:12:21;5.50;;;2.20;;
70433;SDS011;57876;47.792;12.960;2023-02-23T00:14:46;6.00;;;2.40;;
70433;SDS011;57876;47.792;12.960;2023-02-23T00:17:11;5.33;;;2.10;;
70433;SDS011;57876;47.792;12.960;2023-02-23T00:19:37;6.23;;;2.40;;
70433;SDS011;57876;47.792;12.960;2023-02-23T00:22:01;6.00;;;2.43;;
70433;SDS011;57876;47.792;12.960;2023-02-23T00:24:26;6.70;;;2.37;;
70433;SDS011;57876;47.792;12.960;2023-02-23T00:26:50;5.50;;;2.20;;
70433;SDS011;57876;47.792;12.960;2023-02-23T00:29:19;5.67;;;2.03;;
70433;SDS011;57876;47.792;12.960;2023-02-23T00:31:45;6.32;;;2.50;;
70433;SDS011;57876;47.792;12.960;2023-02-23T00:34:11;5.95;;;2.47;;
70433;SDS011;57876;47.792;12.960;2023-02-23T00:36:37;5.95;;;2.00;;
70433;SDS011;57876;47.792;12.960;2023-02-23T00:39:03;6.17;;;2.10;;
70433;SDS011;57876;47.792;12.960;2023-02-23T00:41:40;6.68;;;2.30;;
70433;SDS011;57876;47.792;12.960;2023-02-23T00:44:05;5.70;;;2.13;;
70433;SDS011;57876;47.792;12.960;2023-02-23T00:46:29;5.60;;;2.20;;
70433;SDS011;57876;47.792;12.960;2023-02-23T00:48:55;6.40;;;2.13;;
70433;SDS011;57876;47.792;12.960;2023-02-23T00:51:21;5.75;;;2.28;;
70433;SDS011;57876;47.792;12.960;2023-02-23T00:53:52;5.72;;;2.20;;
70433;SDS011;57876;47.792;12.960;2023-02-23T00:56:17;5.97;;;2.20;;
70433;SDS011;57876;47.792;12.960;2023-02-23T00:58:41;5.78;;;2.30;;
70433;SDS011;57876;47.792;12.960;2023-02-23T01:01:06;5.47;;;2.20;;
70433;SDS011;57876;47.792;12.960;2023-02-23T01:03:33;6.55;;;2.20;;
70433;SDS011;57876;47.792;12.960;2023-02-23T01:05:58;5.27;;;1.93;;
70433;SDS011;57876;47.792;12.960;2023-02-23T01:08:23;5.70;;;2.05;;
70433;SDS011;57876;47.792;12.960;2023-02-23T01:10:47;6.03;;;2.53;;
70433;SDS011;57876;47.792;12.960;2023-02-23T01:13:15;5.60;;;2.30;;
70433;SDS011;57876;47.792;12.960;2023-02-23T01:15:41;5.23;;;1.77;;
70433;SDS011;57876;47.792;12.960;2023-02-23T01:18:06;5.95;;;1.90;;
70433;SDS011;57876;47.792;12.960;2023-02-23T01:20:31;5.70;;;2.00;;
70433;SDS011;57876;47.792;12.960;2023-02-23T01:22:59;5.40;;;1.87;;
70433;SDS011;57876;47.792;12.960;2023-02-23T01:25:23;6.00;;;2.17;;
70433;SDS011;57876;47.792;12.960;2023-02-23T01:27:47;5.50;;;2.10;;
70433;SDS011;57876;47.792;12.960;2023-02-23T01:30:13;5.17;;;1.73;;
70433;SDS011;57876;47.792;12.960;2023-02-23T01:32:38;5.25;;;1.80;;
70433;SDS011;57876;47.792;12.960;2023-02-23T01:35:03;5.63;;;1.80;;
70433;SDS011;57876;47.792;12.960;2023-02-23T01:37:33;5.32;;;1.80;;
70433;SDS011;57876;47.792;12.960;2023-02-23T01:39:58;5.37;;;2.00;;
70433;SDS011;57876;47.792;12.960;2023-02-23T01:42:23;4.82;;;1.67;;
70433;SDS011;57876;47.792;12.960;2023-02-23T01:47:15;5.25;;;1.75;;
70433;SDS011;57876;47.792;12.960;2023-02-23T01:49:43;5.32;;;1.83;;
70433;SDS011;57876;47.792;12.960;2023-02-23T01:52:09;5.43;;;2.00;;
70433;SDS011;57876;47.792;12.960;2023-02-23T01:54:37;5.53;;;1.70;;
70433;SDS011;57876;47.792;12.960;2023-02-23T01:57:04;5.60;;;1.83;;
70433;SDS011;57876;47.792;12.960;2023-02-23T01:59:31;5.03;;;1.88;;
70433;SDS011;57876;47.792;12.960;2023-02-23T02:02:01;4.80;;;1.63;;
70433;SDS011;57876;47.792;12.960;2023-02-23T02:04:28;5.00;;;1.70;;
70433;SDS011;57876;47.792;12.960;2023-02-23T02:06:56;5.00;;;1.80;;
70433;SDS011;57876;47.792;12.960;2023-02-23T02:09:24;5.47;;;1.92;;
70433;SDS011;57876;47.792;12.960;2023-02-23T02:11:51;4.93;;;1.45;;
70433;SDS011;57876;47.792;12.960;2023-02-23T02:14:21;5.80;;;1.77;;
70433;SDS011;57876;47.792;12.960;2023-02-23T02:36:23;5.18;;;1.40;;
70433;SDS011;57876;47.792;12.960;2023-02-23T02:42:12;4.90;;;1.60;;
70433;SDS011;57876;47.792;12.960;2023-02-23T02:44:51;5.15;;;1.55;;
70433;SDS011;57876;47.792;12.960;2023-02-23T02:47:23;4.72;;;1.40;;
70433;SDS011;57876;47.792;12.960;2023-02-23T02:52:50;5.40;;;1.67;;
70433;SDS011;57876;47.792;12.960;2023-02-23T02:55:21;5.10;;;1.50;;
70433;SDS011;57876;47.792;12.960;2023-02-23T02:57:50;4.45;;;1.30;;
70433;SDS011;57876;47.792;12.960;2023-02-23T03:00:20;5.07;;;1.70;;
70433;SDS011;57876;47.792;12.960;2023-02-23T03:03:25;4.63;;;1.48;;
70433;SDS011;57876;47.792;12.960;2023-02-23T03:06:09;4.80;;;1.50;;
70433;SDS011;57876;47.792;12.960;2023-02-23T03:18:18;4.65;;;1.50;;
70433;SDS011;57876;47.792;12.960;2023-02-23T03:21:24;4.78;;;1.50;;
70433;SDS011;57876;47.792;12.960;2023-02-23T03:27:28;5.07;;;1.60;;
70433;SDS011;57876;47.792;12.960;2023-02-23T03:30:19;5.00;;;1.42;;
70433;SDS011;57876;47.792;12.960;2023-02-23T03:33:10;4.88;;;1.30;;
70433;SDS011;57876;47.792;12.960;2023-02-23T03:36:22;4.97;;;1.40;;
70433;SDS011;57876;47.792;12.960;2023-02-23T03:39:13;5.07;;;1.50;;
70433;SDS011;57876;47.792;12.960;2023-02-23T03:42:03;4.50;;;1.27;;
70433;SDS011;57876;47.792;12.960;2023-02-23T03:44:52;5.35;;;1.60;;
70433;SDS011;57876;47.792;12.960;2023-02-23T03:47:37;4.95;;;1.77;;
70433;SDS011;57876;47.792;12.960;2023-02-23T03:50:28;4.88;;;1.50;;
70433;SDS011;57876;47.792;12.960;2023-02-23T03:53:16;4.60;;;1.20;;
70433;SDS011;57876;47.792;12.960;2023-02-23T03:56:03;4.72;;;1.45;;
70433;SDS011;57876;47.792;12.960;2023-02-23T03:58:50;4.82;;;1.45;;
70433;SDS011;57876;47.792;12.960;2023-02-23T04:01:38;4.95;;;1.42;;
70433;SDS011;57876;47.792;12.960;2023-02-23T04:04:21;4.70;;;1.50;;
70433;SDS011;57876;47.792;12.960;2023-02-23T04:07:06;5.00;;;1.17;;
70433;SDS011;57876;47.792;12.960;2023-02-23T04:09:51;5.15;;;1.30;;
70433;SDS011;57876;47.792;12.960;2023-02-23T04:12:40;4.40;;;1.38;;
70433;SDS011;57876;47.792;12.960;2023-02-23T04:15:32;4.90;;;1.45;;
70433;SDS011;57876;47.792;12.960;2023-02-23T04:18:06;5.43;;;1.40;;
70433;SDS011;57876;47.792;12.960;2023-02-23T04:20:36;4.80;;;1.30;;
70433;SDS011;57876;47.792;12.960;2023-02-23T04:23:00;4.65;;;1.30;;
70433;SDS011;57876;47.792;12.960;2023-02-23T04:25:25;4.50;;;1.30;;
70433;SDS011;57876;47.792;12.960;2023-02-23T04:27:49;4.73;;;1.50;;
70433;SDS011;57876;47.792;12.960;2023-02-23T04:30:14;5.30;;;1.40;;
70433;SDS011;57876;47.792;12.960;2023-02-23T04:32:38;4.93;;;1.30;;
70433;SDS011;57876;47.792;12.960;2023-02-23T04:35:03;5.13;;;1.50;;
70433;SDS011;57876;47.792;12.960;2023-02-23T04:37:27;4.93;;;1.60;;
70433;SDS011;57876;47.792;12.960;2023-02-23T04:39:52;4.93;;;1.00;;
70433;SDS011;57876;47.792;12.960;2023-02-23T04:42:16;5.03;;;1.60;;
70433;SDS011;57876;47.792;12.960;2023-02-23T04:44:41;5.03;;;1.50;;
70433;SDS011;57876;47.792;12.960;2023-02-23T04:47:06;5.07;;;1.53;;
70433;SDS011;57876;47.792;12.960;2023-02-23T04:49:30;4.85;;;1.50;;
70433;SDS011;57876;47.792;12.960;2023-02-23T04:51:55;5.27;;;1.40;;
70433;SDS011;57876;47.792;12.960;2023-02-23T04:54:20;4.78;;;1.35;;
70433;SDS011;57876;47.792;12.960;2023-02-23T04:56:44;4.97;;;1.50;;
70433;SDS011;57876;47.792;12.960;2023-02-23T04:59:08;4.50;;;1.43;;
70433;SDS011;57876;47.792;12.960;2023-02-23T05:01:33;4.80;;;1.27;;
70433;SDS011;57876;47.792;12.960;2023-02-23T05:04:00;4.87;;;1.57;;
70433;SDS011;57876;47.792;12.960;2023-02-23T05:06:24;4.55;;;1.25;;
70433;SDS011;57876;47.792;12.960;2023-02-23T05:08:49;5.00;;;1.43;;
70433;SDS011;57876;47.792;12.960;2023-02-23T05:11:13;4.60;;;1.40;;
70433;SDS011;57876;47.792;12.960;2023-02-23T05:13:38;5.13;;;1.70;;
70433;SDS011;57876;47.792;12.960;2023-02-23T05:16:03;4.60;;;1.40;;
70433;SDS011;57876;47.792;12.960;2023-02-23T05:18:27;4.75;;;1.60;;
70433;SDS011;57876;47.792;12.960;2023-02-23T05:20:52;5.03;;;1.50;;
70433;SDS011;57876;47.792;12.960;2023-02-23T05:23:17;4.85;;;1.42;;
70433;SDS011;57876;47.792;12.960;2023-02-23T05:25:42;4.53;;;1.30;;
70433;SDS011;57876;47.792;12.960;2023-02-23T05:28:07;4.77;;;1.53;;
70433;SDS011;57876;47.792;12.960;2023-02-23T05:30:31;4.47;;;1.40;;
70433;SDS011;57876;47.792;12.960;2023-02-23T05:32:56;5.18;;;1.42;;
70433;SDS011;57876;47.792;12.960;2023-02-23T05:35:20;4.60;;;1.50;;
70433;SDS011;57876;47.792;12.960;2023-02-23T05:37:45;5.17;;;1.67;;
70433;SDS011;57876;47.792;12.960;2023-02-23T05:40:09;5.40;;;1.60;;
70433;SDS011;57876;47.792;12.960;2023-02-23T05:42:34;5.63;;;1.60;;
70433;SDS011;57876;47.792;12.960;2023-02-23T05:44:58;5.30;;;1.77;;
70433;SDS011;57876;47.792;12.960;2023-02-23T05:47:23;4.87;;;1.40;;
70433;SDS011;57876;47.792;12.960;2023-02-23T05:49:47;5.30;;;1.70;;
70433;SDS011;57876;47.792;12.960;2023-02-23T05:52:12;5.27;;;1.60;;
70433;SDS011;57876;47.792;12.960;2023-02-23T05:54:36;5.37;;;1.73;;
70433;SDS011;57876;47.792;12.960;2023-02-23T05:57:00;5.60;;;1.63;;
70433;SDS011;57876;47.792;12.960;2023-02-23T05:59:25;4.90;;;1.70;;
70433;SDS011;57876;47.792;12.960;2023-02-23T06:01:50;4.70;;;1.60;;
70433;SDS011;57876;47.792;12.960;2023-02-23T06:04:14;4.93;;;1.50;;
70433;SDS011;57876;47.792;12.960;2023-02-23T06:06:40;5.53;;;1.52;;
70433;SDS011;57876;47.792;12.960;2023-02-23T06:09:04;5.10;;;1.83;;
70433;SDS011;57876;47.792;12.960;2023-02-23T06:11:29;5.23;;;1.73;;
70433;SDS011;57876;47.792;12.960;2023-02-23T06:13:54;5.07;;;1.70;;
70433;SDS011;57876;47.792;12.960;2023-02-23T06:16:18;5.40;;;1.77;;
70433;SDS011;57876;47.792;12.960;2023-02-23T06:18:43;5.88;;;1.80;;
70433;SDS011;57876;47.792;12.960;2023-02-23T06:21:08;5.27;;;1.60;;
70433;SDS011;57876;47.792;12.960;2023-02-23T06:23:32;5.33;;;1.50;;
70433;SDS011;57876;47.792;12.960;2023-02-23T06:25:57;4.80;;;1.70;;
70433;SDS011;57876;47.792;12.960;2023-02-23T06:28:22;5.40;;;1.50;;
70433;SDS011;57876;47.792;12.960;2023-02-23T06:30:47;5.17;;;1.60;;
70433;SDS011;57876;47.792;12.960;2023-02-23T06:33:14;5.23;;;1.77;;
70433;SDS011;57876;47.792;12.960;2023-02-23T06:35:38;4.90;;;1.90;;
70433;SDS011;57876;47.792;12.960;2023-02-23T06:38:03;5.33;;;1.70;;
70433;SDS011;57876;47.792;12.960;2023-02-23T06:40:28;5.13;;;1.70;;
70433;SDS011;57876;47.792;12.960;2023-02-23T06:42:53;5.57;;;1.47;;
70433;SDS011;57876;47.792;12.960;2023-02-23T06:45:18;4.95;;;1.20;;
70433;SDS011;57876;47.792;12.960;2023-02-23T06:47:42;5.00;;;1.57;;
70433;SDS011;57876;47.792;12.960;2023-02-23T06:50:07;5.32;;;1.60;;
70433;SDS011;57876;47.792;12.960;2023-02-23T06:52:32;6.47;;;1.70;;
70433;SDS011;57876;47.792;12.960;2023-02-23T06:54:57;4.93;;;1.65;;
70433;SDS011;57876;47.792;12.960;2023-02-23T06:57:21;5.40;;;1.67;;
70433;SDS011;57876;47.792;12.960;2023-02-23T06:59:46;5.20;;;1.80;;
70433;SDS011;57876;47.792;12.960;2023-02-23T07:02:11;5.07;;;1.90;;
70433;SDS011;57876;47.792;12.960;2023-02-23T07:04:36;5.90;;;1.80;;
70433;SDS011;57876;47.792;12.960;2023-02-23T07:07:01;5.90;;;2.10;;
70433;SDS011;57876;47.792;12.960;2023-02-23T07:09:26;5.47;;;1.90;;
70433;SDS011;57876;47.792;12.960;2023-02-23T07:11:51;5.85;;;1.90;;
70433;SDS011;57876;47.792;12.960;2023-02-23T07:14:15;5.27;;;1.70;;
70433;SDS011;57876;47.792;12.960;2023-02-23T07:16:40;5.97;;;2.00;;
70433;SDS011;57876;47.792;12.960;2023-02-23T07:19:04;5.25;;;1.83;;
70433;SDS011;57876;47.792;12.960;2023-02-23T07:21:30;5.80;;;2.00;;
70433;SDS011;57876;47.792;12.960;2023-02-23T07:23:57;8.55;;;2.03;;
70433;SDS011;57876;47.792;12.960;2023-02-23T07:26:21;6.33;;;2.33;;
70433;SDS011;57876;47.792;12.960;2023-02-23T07:28:45;5.82;;;2.10;;
70433;SDS011;57876;47.792;12.960;2023-02-23T07:31:10;6.53;;;1.90;;
70433;SDS011;57876;47.792;12.960;2023-02-23T07:33:34;5.40;;;2.00;;
70433;SDS011;57876;47.792;12.960;2023-02-23T07:35:58;8.20;;;2.17;;
70433;SDS011;57876;47.792;12.960;2023-02-23T07:38:23;7.07;;;2.40;;
70433;SDS011;57876;47.792;12.960;2023-02-23T07:40:50;5.87;;;2.23;;
70433;SDS011;57876;47.792;12.960;2023-02-23T07:43:15;5.70;;;2.20;;
70433;SDS011;57876;47.792;12.960;2023-02-23T07:45:40;6.33;;;2.20;;
70433;SDS011;57876;47.792;12.960;2023-02-23T07:48:04;6.67;;;2.30;;
70433;SDS011;57876;47.792;12.960;2023-02-23T07:50:29;5.90;;;2.00;;
70433;SDS011;57876;47.792;12.960;2023-02-23T07:52:54;6.67;;;2.23;;
70433;SDS011;57876;47.792;12.960;2023-02-23T07:55:18;5.83;;;2.20;;
70433;SDS011;57876;47.792;12.960;2023-02-23T07:57:43;5.85;;;2.20;;
70433;SDS011;57876;47.792;12.960;2023-02-23T08:00:08;7.13;;;2.10;;
70433;SDS011;57876;47.792;12.960;2023-02-23T08:02:33;7.93;;;2.28;;
70433;SDS011;57876;47.792;12.960;2023-02-23T08:04:58;6.30;;;2.03;;
70433;SDS011;57876;47.792;12.960;2023-02-23T08:07:22;7.72;;;2.00;;
70433;SDS011;57876;47.792;12.960;2023-02-23T08:09:48;5.90;;;1.97;;
70433;SDS011;57876;47.792;12.960;2023-02-23T08:12:13;6.45;;;1.70;;
70433;SDS011;57876;47.792;12.960;2023-02-23T08:14:38;6.40;;;1.70;;
70433;SDS011;57876;47.792;12.960;2023-02-23T08:17:03;6.57;;;1.75;;
70433;SDS011;57876;47.792;12.960;2023-02-23T08:19:27;6.47;;;1.70;;
70433;SDS011;57876;47.792;12.960;2023-02-23T08:21:52;5.82;;;1.70;;
70433;SDS011;57876;47.792;12.960;2023-02-23T08:24:16;7.70;;;1.67;;
70433;SDS011;57876;47.792;12.960;2023-02-23T08:26:41;5.37;;;1.60;;
70433;SDS011;57876;47.792;12.960;2023-02-23T08:29:06;6.93;;;1.63;;
70433;SDS011;57876;47.792;12.960;2023-02-23T08:31:30;6.50;;;1.50;;
70433;SDS011;57876;47.792;12.960;2023-02-23T08:33:55;7.05;;;1.70;;
70433;SDS011;57876;47.792;12.960;2023-02-23T08:36:19;7.10;;;1.77;;
70433;SDS011;57876;47.792;12.960;2023-02-23T08:38:44;7.13;;;1.60;;
70433;SDS011;57876;47.792;12.960;2023-02-23T08:41:08;8.43;;;1.77;;
70433;SDS011;57876;47.792;12.960;2023-02-23T08:43:33;11.23;;;1.80;;
70433;SDS011;57876;47.792;12.960;2023-02-23T08:45:57;10.10;;;2.13;;
70433;SDS011;57876;47.792;12.960;2023-02-23T08:48:21;11.47;;;2.03;;
70433;SDS011;57876;47.792;12.960;2023-02-23T08:50:47;12.32;;;1.98;;
70433;SDS011;57876;47.792;12.960;2023-02-23T08:53:12;8.73;;;2.13;;
70433;SDS011;57876;47.792;12.960;2023-02-23T08:55:37;8.50;;;1.80;;
70433;SDS011;57876;47.792;12.960;2023-02-23T08:58:01;10.37;;;2.30;;
70433;SDS011;57876;47.792;12.960;2023-02-23T09:00:26;8.43;;;2.00;;
70433;SDS011;57876;47.792;12.960;2023-02-23T09:02:50;8.03;;;2.00;;
70433;SDS011;57876;47.792;12.960;2023-02-23T09:05:14;8.67;;;1.97;;
70433;SDS011;57876;47.792;12.960;2023-02-23T09:07:39;8.13;;;2.10;;
70433;SDS011;57876;47.792;12.960;2023-02-23T09:10:10;11.77;;;2.30;;
70433;SDS011;57876;47.792;12.960;2023-02-23T09:12:38;8.38;;;2.13;;
70433;SDS011;57876;47.792;12.960;2023-02-23T09:15:03;5.87;;;1.63;;
70433;SDS011;57876;47.792;12.960;2023-02-23T09:17:28;8.25;;;1.77;;
70433;SDS011;57876;47.792;12.960;2023-02-23T09:19:52;9.67;;;2.00;;
70433;SDS011;57876;47.792;12.960;2023-02-23T09:22:16;6.00;;;1.60;;
70433;SDS011;57876;47.792;12.960;2023-02-23T09:24:44;11.60;;;2.60;;
70433;SDS011;57876;47.792;12.960;2023-02-23T09:27:08;12.33;;;2.30;;
70433;SDS011;57876;47.792;12.960;2023-02-23T09:29:35;11.57;;;2.50;;
70433;SDS011;57876;47.792;12.960;2023-02-23T09:32:04;11.05;;;2.50;;
70433;SDS011;57876;47.792;12.960;2023-02-23T09:34:28;9.17;;;2.43;;
70433;SDS011;57876;47.792;12.960;2023-02-23T09:36:53;11.50;;;2.70;;
70433;SDS011;57876;47.792;12.960;2023-02-23T09:39:18;30.93;;;5.83;;
70433;SDS011;57876;47.792;12.960;2023-02-23T09:49:18;19.87;;;3.70;;
70433;SDS011;57876;47.792;12.960;2023-02-23T09:51:49;750.33;;;132.45;;
70433;SDS011;57876;47.792;12.960;2023-02-23T09:54:20;547.05;;;91.70;;
70433;SDS011;57876;47.792;12.960;2023-02-23T09:56:47;500.25;;;86.05;;
70433;SDS011;57876;47.792;12.960;2023-02-23T09:59:19;602.70;;;109.72;;
70433;SDS011;57876;47.792;12.960;2023-02-23T10:04:23;377.00;;;67.22;;
70433;SDS011;57876;47.792;12.960;2023-02-23T10:06:57;419.13;;;69.90;;
70433;SDS011;57876;47.792;12.960;2023-02-23T10:09:37;382.90;;;62.35;;
70433;SDS011;57876;47.792;12.960;2023-02-23T10:18:39;291.27;;;54.30;;
70433;SDS011;57876;47.792;12.960;2023-02-23T10:21:38;286.83;;;54.10;;
70433;SDS011;57876;47.792;12.960;2023-02-23T10:24:28;188.95;;;35.80;;
70433;SDS011;57876;47.792;12.960;2023-02-23T10:29:41;111.33;;;22.73;;
70433;SDS011;57876;47.792;12.960;2023-02-23T10:32:15;87.93;;;20.02;;
70433;SDS011;57876;47.792;12.960;2023-02-23T10:34:45;105.78;;;20.98;;
70433;SDS011;57876;47.792;12.960;2023-02-23T10:37:12;95.40;;;21.17;;
70433;SDS011;57876;47.792;12.960;2023-02-23T10:39:39;87.95;;;20.80;;
70433;SDS011;57876;47.792;12.960;2023-02-23T10:42:05;106.40;;;20.73;;
70433;SDS011;57876;47.792;12.960;2023-02-23T10:44:36;91.22;;;20.98;;
70433;SDS011;57876;47.792;12.960;2023-02-23T10:47:01;86.20;;;19.30;;
70433;SDS011;57876;47.792;12.960;2023-02-23T10:49:34;95.72;;;19.33;;
70433;SDS011;57876;47.792;12.960;2023-02-23T10:52:09;81.82;;;19.52;;
70433;SDS011;57876;47.792;12.960;2023-02-23T10:54:40;79.10;;;19.50;;
70433;SDS011;57876;47.792;12.960;2023-02-23T10:57:07;76.80;;;18.10;;
70433;SDS011;57876;47.792;12.960;2023-02-23T10:59:37;83.00;;;18.47;;
70433;SDS011;57876;47.792;12.960;2023-02-23T11:02:14;72.55;;;19.17;;
70433;SDS011;57876;47.792;12.960;2023-02-23T11:04:50;77.83;;;18.13;;
70433;SDS011;57876;47.792;12.960;2023-02-23T11:07:18;67.80;;;18.40;;
70433;SDS011;57876;47.792;12.960;2023-02-23T11:09:46;63.83;;;18.00;;
70433;SDS011;57876;47.792;12.960;2023-02-23T11:12:18;71.93;;;17.33;;
70433;SDS011;57876;47.792;12.960;2023-02-23T11:14:45;67.25;;;16.88;;
70433;SDS011;57876;47.792;12.960;2023-02-23T11:17:23;63.60;;;17.77;;
70433;SDS011;57876;47.792;12.960;2023-02-23T11:19:48;69.10;;;17.60;;
70433;SDS011;57876;47.792;12.960;2023-02-23T11:22:16;71.20;;;16.47;;
70433;SDS011;57876;47.792;12.960;2023-02-23T11:24:46;64.32;;;16.80;;
70433;SDS011;57876;47.792;12.960;2023-02-23T11:27:19;57.08;;;17.02;;
70433;SDS011;57876;47.792;12.960;2023-02-23T11:29:46;53.30;;;15.30;;
70433;SDS011;57876;47.792;12.960;2023-02-23T11:32:18;47.92;;;15.13;;
70433;SDS011;57876;47.792;12.960;2023-02-23T11:34:45;63.30;;;16.27;;
70433;SDS011;57876;47.792;12.960;2023-02-23T11:39:37;49.88;;;14.80;;
70433;SDS011;57876;47.792;12.960;2023-02-23T11:42:16;52.23;;;15.30;;
70433;SDS011;57876;47.792;12.960;2023-02-23T11:44:40;51.85;;;14.85;;
70433;SDS011;57876;47.792;12.960;2023-02-23T11:47:10;50.23;;;15.33;;
70433;SDS011;57876;47.792;12.960;2023-02-23T11:49:39;49.73;;;14.93;;
70433;SDS011;57876;47.792;12.960;2023-02-23T11:52:11;55.50;;;15.23;;
70433;SDS011;57876;47.792;12.960;2023-02-23T11:54:38;51.55;;;13.43;;
70433;SDS011;57876;47.792;12.960;2023-02-23T11:57:18;49.47;;;15.55;;
70433;SDS011;57876;47.792;12.960;2023-02-23T11:59:44;44.10;;;13.30;;
70433;SDS011;57876;47.792;12.960;2023-02-23T12:04:38;43.95;;;13.90;;
70433;SDS011;57876;47.792;12.960;2023-02-23T12:08:04;45.80;;;13.10;;
70433;SDS011;57876;47.792;12.960;2023-02-23T12:10:18;47.03;;;13.80;;
70433;SDS011;57876;47.792;12.960;2023-02-23T12:15:42;45.95;;;13.55;;
70433;SDS011;57876;47.792;12.960;2023-02-23T12:20:56;41.53;;;12.47;;
70433;SDS011;57876;47.792;12.960;2023-02-23T12:23:33;44.95;;;12.40;;
70433;SDS011;57876;47.792;12.960;2023-02-23T12:26:04;42.00;;;12.77;;
70433;SDS011;57876;47.792;12.960;2023-02-23T12:28:37;36.70;;;11.77;;
70433;SDS011;57876;47.792;12.960;2023-02-23T12:34:26;42.27;;;12.13;;
70433;SDS011;57876;47.792;12.960;2023-02-23T12:37:00;40.00;;;12.00;;
70433;SDS011;57876;47.792;12.960;2023-02-23T12:39:39;39.47;;;12.60;;
70433;SDS011;57876;47.792;12.960;2023-02-23T12:42:11;37.22;;;11.35;;
70433;SDS011;57876;47.792;12.960;2023-02-23T12:44:42;37.80;;;11.70;;
70433;SDS011;57876;47.792;12.960;2023-02-23T12:47:52;33.83;;;11.43;;
70433;SDS011;57876;47.792;12.960;2023-02-23T12:50:01;34.10;;;11.38;;
70433;SDS011;57876;47.792;12.960;2023-02-23T12:52:37;31.58;;;11.27;;
70433;SDS011;57876;47.792;12.960;2023-02-23T12:55:09;36.10;;;11.48;;
70433;SDS011;57876;47.792;12.960;2023-02-23T12:57:42;33.50;;;10.27;;
70433;SDS011;57876;47.792;12.960;2023-02-23T13:03:10;33.97;;;10.85;;
70433;SDS011;57876;47.792;12.960;2023-02-23T13:17:24;30.90;;;10.20;;
70433;SDS011;57876;47.792;12.960;2023-02-23T13:23:07;29.52;;;9.40;;
70433;SDS011;57876;47.792;12.960;2023-02-23T13:31:31;29.35;;;9.13;;
70433;SDS011;57876;47.792;12.960;2023-02-23T13:33:58;29.70;;;9.32;;
70433;SDS011;57876;47.792;12.960;2023-02-23T13:36:25;27.52;;;9.52;;
70433;SDS011;57876;47.792;12.960;2023-02-23T13:39:03;27.52;;;9.07;;
70433;SDS011;57876;47.792;12.960;2023-02-23T13:42:04;26.00;;;9.30;;
70433;SDS011;57876;47.792;12.960;2023-02-23T13:44:47;24.02;;;9.30;;
70433;SDS011;57876;47.792;12.960;2023-02-23T13:55:02;31.07;;;10.17;;
70433;SDS011;57876;47.792;12.960;2023-02-23T13:57:27;25.50;;;9.30;;
70433;SDS011;57876;47.792;12.960;2023-02-23T13:59:55;24.50;;;8.68;;
70433;SDS011;57876;47.792;12.960;2023-02-23T14:05:17;21.48;;;7.88;;
70433;SDS011;57876;47.792;12.960;2023-02-23T14:07:44;20.95;;;7.35;;
70433;SDS011;57876;47.792;12.960;2023-02-23T14:10:16;24.48;;;8.60;;
70433;SDS011;57876;47.792;12.960;2023-02-23T14:15:47;23.27;;;7.70;;
70433;SDS011;57876;47.792;12.960;2023-02-23T14:25:51;67.60;;;22.02;;
70433;SDS011;57876;47.792;12.960;2023-02-23T14:28:23;44.72;;;14.88;;
70433;SDS011;57876;47.792;12.960;2023-02-23T14:30:58;34.50;;;12.40;;
70433;SDS011;57876;47.792;12.960;2023-02-23T14:34:07;33.90;;;10.73;;
70433;SDS011;57876;47.792;12.960;2023-02-23T14:38:44;23.73;;;8.82;;
70433;SDS011;57876;47.792;12.960;2023-02-23T14:41:09;23.23;;;8.90;;
70433;SDS011;57876;47.792;12.960;2023-02-23T14:46:01;27.92;;;8.50;;
70433;SDS011;57876;47.792;12.960;2023-02-23T14:48:28;21.55;;;7.38;;
70433;SDS011;57876;47.792;12.960;2023-02-23T14:51:07;18.07;;;6.77;;
70433;SDS011;57876;47.792;12.960;2023-02-23T14:53:34;18.20;;;6.88;;
70433;SDS011;57876;47.792;12.960;2023-02-23T14:56:03;17.43;;;6.00;;
70433;SDS011;57876;47.792;12.960;2023-02-23T14:58:28;17.90;;;6.63;;
70433;SDS011;57876;47.792;12.960;2023-02-23T15:00:56;19.63;;;6.57;;
70433;SDS011;57876;47.792;12.960;2023-02-23T15:03:20;16.70;;;5.70;;
70433;SDS011;57876;47.792;12.960;2023-02-23T15:05:46;18.83;;;5.90;;
70433;SDS011;57876;47.792;12.960;2023-02-23T15:08:16;17.80;;;6.13;;
70433;SDS011;57876;47.792;12.960;2023-02-23T15:10:44;13.45;;;5.05;;
70433;SDS011;57876;47.792;12.960;2023-02-23T15:15:51;16.20;;;5.38;;
70433;SDS011;57876;47.792;12.960;2023-02-23T15:18:27;14.33;;;5.20;;
70433;SDS011;57876;47.792;12.960;2023-02-23T15:20:55;14.85;;;4.88;;
70433;SDS011;57876;47.792;12.960;2023-02-23T15:23:20;13.82;;;5.05;;
70433;SDS011;57876;47.792;12.960;2023-02-23T15:25:44;14.70;;;5.30;;
70433;SDS011;57876;47.792;12.960;2023-02-23T15:28:21;16.80;;;4.70;;
70433;SDS011;57876;47.792;12.960;2023-02-23T15:31:00;12.97;;;4.37;;
70433;SDS011;57876;47.792;12.960;2023-02-23T15:33:31;15.52;;;4.82;;
70433;SDS011;57876;47.792;12.960;2023-02-23T15:38:22;16.17;;;5.60;;
70433;SDS011;57876;47.792;12.960;2023-02-23T15:41:06;14.57;;;5.65;;
70433;SDS011;57876;47.792;12.960;2023-02-23T15:43:39;16.73;;;5.55;;
70433;SDS011;57876;47.792;12.960;2023-02-23T15:46:06;11.80;;;4.40;;
70433;SDS011;57876;47.792;12.960;2023-02-23T15:48:43;16.47;;;5.20;;
70433;SDS011;57876;47.792;12.960;2023-02-23T15:51:56;11.25;;;3.80;;
70433;SDS011;57876;47.792;12.960;2023-02-23T15:54:09;12.30;;;4.00;;
70433;SDS011;57876;47.792;12.960;2023-02-23T15:57:19;15.02;;;5.03;;
70433;SDS011;57876;47.792;12.960;2023-02-23T15:59:49;12.57;;;4.57;;
70433;SDS011;57876;47.792;12.960;2023-02-23T16:02:18;12.07;;;4.13;;
70433;SDS011;57876;47.792;12.960;2023-02-23T16:04:46;12.40;;;3.95;;
70433;SDS011;57876;47.792;12.960;2023-02-23T16:07:21;12.45;;;3.65;;
70433;SDS011;57876;47.792;12.960;2023-02-23T16:14:45;12.63;;;4.60;;
70433;SDS011;57876;47.792;12.960;2023-02-23T16:19:53;10.02;;;3.67;;
70433;SDS011;57876;47.792;12.960;2023-02-23T16:22:34;9.50;;;2.80;;
70433;SDS011;57876;47.792;12.960;2023-02-23T16:25:03;13.55;;;4.10;;
70433;SDS011;57876;47.792;12.960;2023-02-23T16:27:33;12.52;;;4.13;;
70433;SDS011;57876;47.792;12.960;2023-02-23T16:30:10;12.15;;;3.88;;
70433;SDS011;57876;47.792;12.960;2023-02-23T16:32:40;11.43;;;3.53;;
70433;SDS011;57876;47.792;12.960;2023-02-23T16:35:14;11.17;;;3.60;;
70433;SDS011;57876;47.792;12.960;2023-02-23T16:37:51;10.48;;;3.83;;
70433;SDS011;57876;47.792;12.960;2023-02-23T16:40:21;10.38;;;3.60;;
70433;SDS011;57876;47.792;12.960;2023-02-23T16:42:45;10.60;;;3.57;;
70433;SDS011;57876;47.792;12.960;2023-02-23T16:45:13;10.25;;;3.72;;
70433;SDS011;57876;47.792;12.960;2023-02-23T16:47:40;12.93;;;6.83;;
70433;SDS011;57876;47.792;12.960;2023-02-23T16:50:23;10.45;;;5.05;;
70433;SDS011;57876;47.792;12.960;2023-02-23T16:52:48;12.50;;;4.95;;
70433;SDS011;57876;47.792;12.960;2023-02-23T16:55:20;11.65;;;4.90;;